Time;durP1;ratioP1;P1;durP2;ratioP2;P2;SDS_P1;SDS_P2;PMS_P1;PMS_P2;Temp;Humidity;BMP_temperature;BMP_pressure;BME280_temperature;BME280_humidity;BME280_pressure;Samples;Min_cycle;Max_cycle;Signal;HPM_P1;HPM_P2
2021/05/21 00:00:50;;;;;;;1.85;0.50;;;23.10;44.00;;;;;;5046865;28;20119;-60
2021/05/21 00:03:17;;;;;;;1.58;0.40;;;23.10;44.00;;;;;;5045686;28;20071;-60
2021/05/21 00:05:44;;;;;;;0.90;0.50;;;23.00;44.00;;;;;;5047462;28;20053;-60
2021/05/21 00:08:11;;;;;;;0.40;0.40;;;23.10;44.00;;;;;;5047106;28;20393;-60
2021/05/21 00:10:39;;;;;;;0.95;0.38;;;23.00;44.00;;;;;;5061393;28;20413;-60
2021/05/21 00:13:07;;;;;;;2.35;0.60;;;23.00;44.00;;;;;;5040352;28;20053;-60
2021/05/21 00:15:34;;;;;;;3.15;0.70;;;23.10;44.00;;;;;;5040343;28;20578;-60
2021/05/21 00:18:01;;;;;;;2.08;0.50;;;23.00;43.90;;;;;;5040783;28;20447;-60
2021/05/21 00:20:28;;;;;;;1.55;0.60;;;23.10;44.00;;;;;;5056177;28;20123;-60
2021/05/21 00:22:55;;;;;;;0.40;0.40;;;23.00;44.00;;;;;;5040249;28;20517;-61
2021/05/21 00:25:22;;;;;;;1.70;0.40;;;23.00;44.00;;;;;;5036116;28;20532;-60
2021/05/21 00:27:49;;;;;;;0.50;0.50;;;23.00;44.00;;;;;;5039763;28;20075;-60
2021/05/21 00:30:17;;;;;;;1.13;0.57;;;23.00;44.00;;;;;;5055238;28;20139;-60
2021/05/21 00:32:44;;;;;;;0.93;0.52;;;23.00;44.00;;;;;;5040478;28;20055;-60
2021/05/21 00:35:11;;;;;;;1.25;0.80;;;23.00;44.00;;;;;;5042197;28;20442;-60
2021/05/21 00:37:38;;;;;;;0.50;0.40;;;23.00;44.00;;;;;;5046520;28;20127;-60
2021/05/21 00:40:06;;;;;;;2.28;0.68;;;23.00;44.00;;;;;;5045938;28;20095;-60
2021/05/21 00:42:33;;;;;;;2.35;0.60;;;22.90;44.00;;;;;;5045694;28;20053;-60
2021/05/21 00:45:01;;;;;;;0.98;0.60;;;22.90;44.00;;;;;;5045847;28;20048;-60
2021/05/21 00:47:29;;;;;;;1.05;0.30;;;23.00;44.10;;;;;;5046021;28;20041;-60
2021/05/21 00:49:56;;;;;;;1.70;0.68;;;22.90;44.00;;;;;;5045648;28;20052;-60
2021/05/21 00:52:27;;;;;;;1.45;0.68;;;22.90;44.00;;;;;;5044993;28;20142;-60
2021/05/21 00:54:55;;;;;;;2.00;0.40;;;22.90;44.00;;;;;;5045672;28;20048;-60
2021/05/21 00:57:22;;;;;;;2.95;1.20;;;22.90;44.20;;;;;;5045863;28;20059;-60
2021/05/21 00:59:50;;;;;;;0.28;0.28;;;22.90;44.10;;;;;;5045674;28;20071;-60
2021/05/21 01:02:19;;;;;;;1.42;0.60;;;22.90;44.10;;;;;;5045565;28;20087;-60
2021/05/21 01:04:46;;;;;;;1.23;0.50;;;22.90;44.10;;;;;;5045506;28;20157;-60
2021/05/21 01:07:13;;;;;;;1.73;0.70;;;22.90;44.10;;;;;;5046196;28;20459;-60
2021/05/21 01:09:40;;;;;;;1.17;0.43;;;22.90;44.10;;;;;;5044540;28;20495;-60
2021/05/21 01:12:08;;;;;;;0.30;0.25;;;22.90;44.10;;;;;;5042657;28;20541;-60
2021/05/21 01:14:45;;;;;;;0.70;0.40;;;22.90;44.00;;;;;;5039567;28;20140;-60
2021/05/21 01:17:12;;;;;;;1.60;0.43;;;22.90;44.00;;;;;;5045500;28;20453;-60
2021/05/21 01:19:39;;;;;;;0.43;0.40;;;22.90;44.00;;;;;;5045645;28;20049;-60
2021/05/21 01:22:06;;;;;;;0.85;0.50;;;22.90;44.10;;;;;;5044219;28;20231;-60
2021/05/21 01:24:33;;;;;;;1.48;0.50;;;22.90;44.10;;;;;;5036740;28;20075;-60
2021/05/21 01:27:02;;;;;;;1.20;0.60;;;22.90;44.10;;;;;;5038217;28;20124;-60
2021/05/21 01:29:30;;;;;;;0.68;0.60;;;22.80;44.10;;;;;;5037571;28;20490;-60
2021/05/21 01:31:57;;;;;;;1.08;0.50;;;22.80;44.00;;;;;;5040547;28;20095;-60
2021/05/21 01:34:24;;;;;;;0.35;0.32;;;22.90;44.10;;;;;;5041669;28;20284;-60
2021/05/21 01:36:51;;;;;;;1.40;0.40;;;22.80;44.10;;;;;;5037635;28;20114;-60
2021/05/21 01:39:19;;;;;;;1.15;0.50;;;22.80;44.00;;;;;;5040201;28;20487;-60
2021/05/21 01:41:47;;;;;;;0.57;0.38;;;22.80;44.10;;;;;;5035016;28;20117;-60
2021/05/21 01:44:15;;;;;;;0.45;0.30;;;22.80;44.10;;;;;;5043954;28;20502;-61
2021/05/21 01:46:43;;;;;;;1.42;0.40;;;22.80;44.10;;;;;;5045132;28;20133;-60
2021/05/21 01:49:10;;;;;;;1.13;0.30;;;22.80;44.10;;;;;;5045366;28;20049;-60
2021/05/21 01:51:57;;;;;;;1.10;0.38;;;22.80;44.20;;;;;;5059791;28;20450;-60
2021/05/21 01:54:25;;;;;;;0.98;0.40;;;22.70;44.30;;;;;;5043997;28;20575;-60
2021/05/21 01:56:52;;;;;;;0.65;0.50;;;22.70;44.50;;;;;;5045055;28;20080;-60
2021/05/21 01:59:21;;;;;;;1.30;0.50;;;22.60;44.50;;;;;;5043613;28;20075;-60
2021/05/21 02:01:49;;;;;;;1.13;0.40;;;22.60;44.50;;;;;;5044514;28;20086;-60
2021/05/21 02:04:28;;;;;;;1.27;0.43;;;22.60;44.40;;;;;;5044249;28;20116;-60
2021/05/21 02:06:55;;;;;;;1.95;0.80;;;22.60;44.40;;;;;;5060332;28;20041;-61
2021/05/21 02:09:23;;;;;;;2.10;0.40;;;22.60;44.40;;;;;;5044366;28;20140;-60
2021/05/21 02:11:50;;;;;;;1.38;0.38;;;22.60;44.50;;;;;;5042867;28;20140;-60
2021/05/21 02:14:17;;;;;;;2.00;0.50;;;22.60;44.50;;;;;;5041550;28;20049;-60
2021/05/21 02:16:45;;;;;;;0.68;0.30;;;22.60;44.50;;;;;;5036505;28;20095;-60
2021/05/21 02:19:12;;;;;;;0.55;0.40;;;22.60;44.50;;;;;;5038670;28;20111;-60
2021/05/21 02:21:42;;;;;;;1.10;0.40;;;22.60;44.50;;;;;;5041330;28;20472;-60
2021/05/21 02:24:09;;;;;;;0.35;0.35;;;22.60;44.60;;;;;;5037826;28;20055;-60
2021/05/21 02:26:36;;;;;;;2.55;0.77;;;22.50;44.60;;;;;;5038487;28;20106;-60
2021/05/21 02:29:04;;;;;;;0.68;0.40;;;22.50;44.70;;;;;;5039744;28;20118;-60
2021/05/21 02:31:31;;;;;;;0.55;0.40;;;22.50;44.70;;;;;;5038760;28;20095;-60
2021/05/21 02:33:59;;;;;;;0.85;0.40;;;22.50;44.70;;;;;;5039720;28;20482;-60
2021/05/21 02:36:26;;;;;;;2.47;1.00;;;22.50;44.70;;;;;;5038627;28;20564;-60
2021/05/21 02:38:53;;;;;;;0.55;0.45;;;22.50;44.70;;;;;;5041935;28;20048;-60
2021/05/21 02:41:21;;;;;;;1.15;0.40;;;22.40;44.80;;;;;;5041564;28;20073;-60
2021/05/21 02:43:49;;;;;;;0.88;0.45;;;22.40;44.80;;;;;;5038991;28;20071;-60
2021/05/21 02:46:16;;;;;;;2.22;0.40;;;22.40;44.90;;;;;;5038455;28;20514;-60
2021/05/21 02:48:43;;;;;;;0.63;0.40;;;22.40;44.90;;;;;;5037637;28;20211;-60
2021/05/21 02:51:10;;;;;;;2.97;0.80;;;22.40;44.90;;;;;;5039919;28;20659;-60
2021/05/21 02:53:37;;;;;;;1.65;0.40;;;22.40;44.90;;;;;;5043413;28;20152;-60
2021/05/21 02:56:04;;;;;;;0.55;0.47;;;22.40;44.90;;;;;;5040256;28;20137;-60
2021/05/21 02:58:32;;;;;;;1.27;0.40;;;22.40;44.80;;;;;;5044535;28;20136;-60
2021/05/21 03:00:59;;;;;;;0.30;0.30;;;22.40;44.80;;;;;;5044578;28;20599;-60
2021/05/21 03:03:26;;;;;;;0.82;0.40;;;22.40;44.80;;;;;;5044331;28;20127;-60
2021/05/21 03:05:55;;;;;;;0.63;0.52;;;22.40;44.80;;;;;;5044930;28;20053;-60
2021/05/21 03:08:22;;;;;;;0.60;0.43;;;22.40;44.90;;;;;;5044492;28;20226;-60
2021/05/21 03:10:50;;;;;;;0.68;0.55;;;22.40;44.80;;;;;;5041075;28;20130;-60
2021/05/21 03:13:17;;;;;;;2.35;0.70;;;22.40;44.80;;;;;;5042158;28;20049;-60
2021/05/21 03:15:46;;;;;;;1.77;0.43;;;22.40;44.80;;;;;;5041423;28;20073;-60
2021/05/21 03:18:18;;;;;;;1.35;0.30;;;22.40;44.70;;;;;;5040602;28;20053;-60
2021/05/21 03:20:45;;;;;;;1.20;0.47;;;22.40;44.80;;;;;;5041780;28;20424;-60
2021/05/21 03:23:12;;;;;;;1.63;0.60;;;22.30;44.80;;;;;;5042772;28;20059;-60
2021/05/21 03:25:41;;;;;;;0.90;0.43;;;22.30;44.80;;;;;;5047543;28;20052;-60
2021/05/21 03:28:09;;;;;;;0.80;0.47;;;22.20;44.80;;;;;;5047233;28;20140;-60
2021/05/21 03:30:38;;;;;;;1.98;0.55;;;22.30;44.90;;;;;;5047719;28;20135;-60
2021/05/21 03:33:06;;;;;;;1.00;0.30;;;22.30;44.90;;;;;;5046839;28;20115;-60
2021/05/21 03:35:35;;;;;;;0.45;0.45;;;22.30;44.90;;;;;;5047219;28;20049;-60
2021/05/21 03:38:07;;;;;;;0.43;0.30;;;22.30;44.90;;;;;;5047244;28;20095;-60
2021/05/21 03:40:35;;;;;;;1.25;0.30;;;22.30;44.90;;;;;;5042280;28;20080;-60
2021/05/21 03:43:03;;;;;;;1.60;0.50;;;22.30;44.90;;;;;;5028758;28;20590;-60
2021/05/21 03:45:34;;;;;;;1.25;0.50;;;22.30;44.90;;;;;;5027146;28;20107;-60
2021/05/21 03:48:01;;;;;;;;;;;22.30;44.90;;;;;;5027261;28;20132;-60
2021/05/21 03:50:28;;;;;;;1.13;0.60;;;22.30;44.90;;;;;;5037013;28;19925;-60
2021/05/21 03:52:56;;;;;;;0.75;0.40;;;22.30;44.80;;;;;;5034482;28;20506;-60
2021/05/21 03:55:23;;;;;;;0.82;0.57;;;22.40;44.70;;;;;;5035686;28;20107;-60
2021/05/21 03:57:51;;;;;;;0.30;0.30;;;22.40;44.50;;;;;;5039214;28;20106;-60
2021/05/21 04:00:20;;;;;;;0.50;0.50;;;22.50;44.50;;;;;;5037819;28;20528;-60
2021/05/21 04:02:51;;;;;;;0.47;0.30;;;22.50;44.30;;;;;;5040323;28;20162;-60
2021/05/21 04:05:18;;;;;;;;;;;22.50;44.20;;;;;;5039880;28;20077;-60
2021/05/21 04:07:47;;;;;;;0.63;0.63;;;22.60;44.10;;;;;;5043879;28;20002;-60
2021/05/21 04:10:14;;;;;;;0.50;0.40;;;22.60;44.10;;;;;;5042457;28;20140;-60
2021/05/21 04:12:43;;;;;;;0.40;0.40;;;22.60;44.00;;;;;;5040381;28;20049;-60
2021/05/21 04:15:11;;;;;;;0.98;0.40;;;22.60;43.90;;;;;;5038760;28;20136;-60
2021/05/21 04:17:38;;;;;;;1.20;0.50;;;22.70;43.90;;;;;;5043423;28;20255;-60
2021/05/21 04:20:06;;;;;;;0.82;0.35;;;22.70;43.80;;;;;;5041076;28;20142;-60
2021/05/21 04:22:33;;;;;;;0.30;0.30;;;22.70;43.80;;;;;;5039411;28;20041;-60
2021/05/21 04:25:01;;;;;;;0.32;0.30;;;22.70;43.70;;;;;;5043702;28;20095;-60
2021/05/21 04:27:28;;;;;;;0.32;0.30;;;22.70;43.70;;;;;;5057833;28;20098;-60
2021/05/21 04:29:55;;;;;;;2.03;0.25;;;22.70;43.70;;;;;;5037559;28;20468;-60
2021/05/21 04:32:22;;;;;;;0.82;0.43;;;22.80;43.70;;;;;;5038956;28;20484;-60
2021/05/21 04:34:50;;;;;;;0.25;0.20;;;22.80;43.60;;;;;;5040755;28;20080;-60
2021/05/21 04:37:17;;;;;;;1.13;0.60;;;22.80;43.60;;;;;;5041911;28;20213;-60
2021/05/21 04:39:44;;;;;;;0.95;0.40;;;22.80;43.50;;;;;;5043932;28;20230;-60
2021/05/21 04:42:12;;;;;;;0.65;0.30;;;22.80;43.50;;;;;;5036234;28;20068;-59
2021/05/21 04:44:39;;;;;;;1.05;0.60;;;22.80;43.40;;;;;;5037337;28;20137;-60
2021/05/21 04:47:07;;;;;;;0.95;0.50;;;22.90;43.40;;;;;;5036293;28;20054;-59
2021/05/21 04:49:35;;;;;;;0.40;0.30;;;22.90;43.40;;;;;;5031531;28;20517;-60
2021/05/21 04:52:05;;;;;;;1.95;0.20;;;22.90;43.30;;;;;;5035391;28;20049;-60
2021/05/21 04:54:34;;;;;;;0.75;0.63;;;22.90;43.20;;;;;;5035530;28;20076;-60
2021/05/21 04:57:01;;;;;;;0.70;0.40;;;22.90;43.20;;;;;;5033178;28;20110;-60
2021/05/21 04:59:28;;;;;;;0.63;0.40;;;22.90;43.10;;;;;;5038804;28;20501;-60
2021/05/21 05:01:55;;;;;;;0.45;0.40;;;23.00;43.10;;;;;;5039835;28;20059;-59
2021/05/21 05:04:23;;;;;;;0.68;0.50;;;23.00;43.00;;;;;;5029356;28;20077;-60
2021/05/21 05:06:50;;;;;;;0.43;0.40;;;23.10;43.10;;;;;;5035137;28;20053;-59
2021/05/21 05:09:17;;;;;;;0.68;0.45;;;23.10;43.00;;;;;;5036444;28;20124;-60
2021/05/21 05:11:45;;;;;;;1.20;0.40;;;23.10;42.90;;;;;;5044669;28;20053;-60
2021/05/21 05:14:13;;;;;;;0.43;0.43;;;23.10;42.90;;;;;;5034226;28;20049;-60
2021/05/21 05:16:40;;;;;;;1.40;0.38;;;23.20;42.90;;;;;;5036644;28;20454;-60
2021/05/21 05:19:08;;;;;;;0.82;0.40;;;23.20;42.80;;;;;;5030085;28;20141;-60
2021/05/21 05:21:40;;;;;;;2.38;0.35;;;23.20;42.70;;;;;;5032963;28;20110;-60
2021/05/21 05:24:16;;;;;;;1.95;0.45;;;23.30;42.70;;;;;;5031568;28;20048;-60
2021/05/21 05:26:43;;;;;;;1.50;0.60;;;23.30;42.60;;;;;;5044400;28;20092;-62
2021/05/21 05:29:11;;;;;;;2.67;0.50;;;23.30;42.60;;;;;;5035018;28;20099;-62
2021/05/21 05:31:39;;;;;;;0.50;0.40;;;23.40;42.60;;;;;;5040425;28;20137;-63
2021/05/21 05:34:06;;;;;;;0.60;0.40;;;23.40;42.30;;;;;;5033075;28;20041;-62
2021/05/21 05:36:33;;;;;;;0.50;0.50;;;23.50;42.10;;;;;;5040736;28;20102;-62
2021/05/21 05:39:01;;;;;;;1.20;0.55;;;23.50;41.80;;;;;;5033857;28;20049;-62
2021/05/21 05:41:28;;;;;;;0.88;0.57;;;23.60;41.50;;;;;;5028379;28;20055;-61
2021/05/21 05:43:55;;;;;;;0.57;0.50;;;23.60;41.40;;;;;;5027114;28;21663;-61
2021/05/21 05:46:23;;;;;;;0.40;0.40;;;23.70;41.40;;;;;;5032660;28;20049;-61
2021/05/21 05:48:51;;;;;;;0.60;0.40;;;23.80;41.30;;;;;;5034636;28;20053;-64
2021/05/21 05:51:18;;;;;;;0.60;0.60;;;23.80;41.30;;;;;;5032210;28;20044;-60
2021/05/21 05:53:45;;;;;;;1.38;0.68;;;23.90;41.10;;;;;;5031739;28;20049;-61
2021/05/21 05:56:13;;;;;;;4.90;0.47;;;23.90;41.00;;;;;;5029157;28;20140;-61
2021/05/21 05:58:41;;;;;;;1.65;0.50;;;24.00;40.90;;;;;;5036089;28;20041;-61
2021/05/21 06:01:08;;;;;;;1.52;0.60;;;24.00;40.50;;;;;;5036310;28;20079;-62
2021/05/21 06:03:35;;;;;;;2.55;0.43;;;24.10;40.30;;;;;;5032504;28;20041;-60
2021/05/21 06:06:03;;;;;;;3.67;0.80;;;24.10;40.10;;;;;;5036087;28;20128;-61
2021/05/21 06:08:50;;;;;;;1.25;0.90;;;24.10;40.00;;;;;;5023028;28;20049;-61
2021/05/21 06:11:17;;;;;;;2.75;0.40;;;24.20;39.70;;;;;;5029615;28;20406;-61
2021/05/21 06:13:44;;;;;;;1.95;1.23;;;24.30;40.00;;;;;;5032382;28;20106;-63
2021/05/21 06:16:12;;;;;;;2.72;0.50;;;24.30;40.20;;;;;;5026813;28;20494;-61
2021/05/21 06:18:40;;;;;;;3.88;0.57;;;24.30;40.00;;;;;;5033353;28;20223;-62
2021/05/21 06:21:08;;;;;;;1.27;0.80;;;24.40;40.00;;;;;;5034147;28;20092;-60
2021/05/21 06:23:37;;;;;;;3.90;1.10;;;24.40;39.70;;;;;;5029508;28;20076;-61
2021/05/21 06:28:54;;;;;;;1.65;0.90;;;24.50;39.40;;;;;;5033517;28;20660;-62
2021/05/21 06:31:22;;;;;;;2.22;0.55;;;24.60;39.50;;;;;;5032411;28;20501;-62
2021/05/21 06:33:49;;;;;;;1.55;0.70;;;24.60;39.50;;;;;;5034707;28;20056;-61
2021/05/21 06:36:17;;;;;;;1.23;0.70;;;24.70;39.80;;;;;;5044170;28;20131;-60
2021/05/21 06:38:44;;;;;;;1.40;0.68;;;24.70;39.80;;;;;;5034371;28;20110;-63
2021/05/21 06:41:12;;;;;;;2.33;0.75;;;24.80;39.50;;;;;;5035217;28;20045;-60
2021/05/21 06:43:39;;;;;;;1.67;0.50;;;24.90;39.40;;;;;;5037404;28;20073;-61
2021/05/21 06:46:06;;;;;;;3.95;0.90;;;24.90;39.00;;;;;;5031736;28;20084;-60
2021/05/21 06:48:34;;;;;;;0.80;0.52;;;24.90;39.00;;;;;;5033883;28;20088;-61
2021/05/21 06:51:06;;;;;;;0.77;0.60;;;25.00;39.00;;;;;;5033268;28;20041;-60
2021/05/21 06:53:34;;;;;;;0.98;0.90;;;25.00;39.10;;;;;;5033869;28;20080;-60
2021/05/21 06:56:02;;;;;;;2.88;0.60;;;25.00;38.80;;;;;;5034081;28;20080;-61
2021/05/21 06:58:29;;;;;;;2.97;0.90;;;25.10;38.60;;;;;;5031916;28;20131;-61
2021/05/21 07:00:57;;;;;;;1.02;0.52;;;25.10;38.50;;;;;;5031870;28;20042;-61
2021/05/21 07:03:31;;;;;;;1.88;0.60;;;25.10;38.40;;;;;;5031992;28;20045;-60
2021/05/21 07:05:58;;;;;;;1.58;0.60;;;25.10;38.20;;;;;;5032835;28;20119;-60
2021/05/21 07:08:26;;;;;;;1.67;0.68;;;25.10;38.80;;;;;;5029306;28;20049;-58
2021/05/21 07:10:53;;;;;;;4.70;0.82;;;25.20;38.90;;;;;;5030529;28;20107;-57
2021/05/21 07:13:21;;;;;;;1.42;0.65;;;25.20;38.70;;;;;;5031486;28;20087;-60
2021/05/21 07:15:49;;;;;;;1.73;0.70;;;25.30;38.80;;;;;;5033130;28;20076;-59
2021/05/21 07:18:16;;;;;;;0.75;0.38;;;25.30;38.50;;;;;;5029390;28;20049;-60
2021/05/21 07:20:46;;;;;;;1.90;0.47;;;25.40;37.90;;;;;;5030847;28;20049;-62
2021/05/21 07:23:14;;;;;;;1.85;0.70;;;25.40;38.10;;;;;;5033248;28;20140;-61
2021/05/21 07:25:42;;;;;;;1.25;0.38;;;25.40;38.00;;;;;;5029846;28;20051;-61
2021/05/21 07:28:10;;;;;;;2.65;0.75;;;25.40;37.40;;;;;;5031806;28;20041;-61
2021/05/21 07:30:38;;;;;;;0.43;0.40;;;25.40;37.00;;;;;;5026451;28;20107;-62
2021/05/21 07:33:05;;;;;;;3.58;0.55;;;25.40;36.80;;;;;;5032632;28;20154;-62
2021/05/21 07:35:36;;;;;;;0.55;0.40;;;25.40;36.80;;;;;;5031781;28;20057;-62
2021/05/21 07:38:03;;;;;;;0.50;0.40;;;25.50;36.70;;;;;;5030192;28;20145;-62
2021/05/21 07:40:31;;;;;;;7.30;1.02;;;25.50;36.60;;;;;;5036588;28;20410;-60
2021/05/21 07:42:58;;;;;;;0.50;0.50;;;25.50;36.60;;;;;;5031262;28;20128;-62
2021/05/21 07:45:25;;;;;;;1.45;0.50;;;25.50;37.20;;;;;;5032021;28;20137;-63
2021/05/21 07:47:53;;;;;;;0.63;0.40;;;25.50;36.30;;;;;;5030790;28;20124;-62
2021/05/21 07:50:20;;;;;;;0.75;0.38;;;25.60;36.50;;;;;;5031941;28;20081;-62
2021/05/21 07:52:47;;;;;;;3.67;0.50;;;25.60;36.40;;;;;;5035318;28;20080;-61
2021/05/21 07:55:15;;;;;;;1.35;0.40;;;25.60;36.20;;;;;;5029908;28;20061;-63
2021/05/21 07:57:42;;;;;;;3.40;0.32;;;25.60;36.10;;;;;;5032890;28;20144;-62
2021/05/21 08:00:10;;;;;;;0.38;0.38;;;25.70;36.50;;;;;;5028948;28;20083;-62
2021/05/21 08:02:38;;;;;;;0.30;0.30;;;25.70;36.30;;;;;;5030615;28;20041;-62
2021/05/21 08:05:06;;;;;;;5.72;0.40;;;25.70;36.00;;;;;;5030881;28;20049;-63
2021/05/21 08:07:33;;;;;;;1.20;0.50;;;25.70;35.90;;;;;;5032797;28;20423;-62
2021/05/21 08:10:02;;;;;;;0.40;0.40;;;25.70;35.90;;;;;;5032222;28;20514;-62
2021/05/21 08:12:30;;;;;;;4.53;0.35;;;25.70;35.90;;;;;;5031134;28;20094;-62
2021/05/21 08:14:57;;;;;;;1.38;0.68;;;25.70;36.00;;;;;;5031145;28;20095;-62
2021/05/21 08:17:24;;;;;;;1.15;1.02;;;25.70;35.80;;;;;;5031268;28;20128;-61
2021/05/21 08:20:11;;;;;;;2.35;0.50;;;25.70;35.80;;;;;;5036826;28;20763;-61
2021/05/21 08:22:38;;;;;;;0.85;0.50;;;25.70;35.70;;;;;;5034305;28;20104;-61
2021/05/21 08:25:06;;;;;;;1.75;0.52;;;25.80;35.70;;;;;;5030953;28;20103;-61
2021/05/21 08:27:34;;;;;;;0.73;0.50;;;25.80;35.70;;;;;;5029789;28;20081;-61
2021/05/21 08:30:02;;;;;;;1.25;0.30;;;25.80;35.70;;;;;;5031927;28;20052;-62
2021/05/21 08:32:29;;;;;;;0.82;0.52;;;25.80;35.80;;;;;;5030975;28;20563;-64
2021/05/21 08:34:57;;;;;;;1.05;0.40;;;25.80;35.80;;;;;;5030127;28;20491;-62
2021/05/21 08:37:24;;;;;;;2.13;0.50;;;25.80;35.70;;;;;;5031741;28;20046;-62
2021/05/21 08:39:54;;;;;;;2.45;0.40;;;25.80;35.70;;;;;;5030314;28;20446;-61
2021/05/21 08:42:22;;;;;;;2.38;0.40;;;25.80;35.70;;;;;;5025062;28;20110;-61
2021/05/21 08:44:50;;;;;;;3.70;0.50;;;25.90;35.80;;;;;;5035188;28;20505;-61
2021/05/21 08:47:18;;;;;;;0.30;0.30;;;25.90;35.70;;;;;;5035104;28;20425;-61
2021/05/21 08:49:46;;;;;;;1.17;0.45;;;25.90;35.60;;;;;;5032174;28;20102;-61
2021/05/21 08:52:15;;;;;;;0.50;0.32;;;25.90;35.60;;;;;;5029654;28;20088;-62
2021/05/21 08:54:45;;;;;;;2.10;0.57;;;25.90;35.50;;;;;;5030092;28;20095;-61
2021/05/21 08:57:18;;;;;;;1.17;0.50;;;25.90;35.60;;;;;;5031282;28;20072;-62
2021/05/21 08:59:47;;;;;;;2.28;0.40;;;25.90;35.50;;;;;;5031586;28;20060;-61
2021/05/21 09:02:22;;;;;;;0.98;0.43;;;25.90;35.40;;;;;;5030511;28;20490;-61
2021/05/21 09:04:57;;;;;;;1.13;0.40;;;25.90;35.40;;;;;;5032409;28;20104;-61
2021/05/21 09:07:28;;;;;;;0.35;0.35;;;25.90;35.30;;;;;;5025429;28;20042;-61
2021/05/21 09:09:57;;;;;;;1.95;0.38;;;26.00;35.40;;;;;;5030161;28;20036;-59
2021/05/21 09:12:37;;;;;;;0.75;0.38;;;26.00;35.70;;;;;;5030576;28;20123;-60
2021/05/21 09:15:07;;;;;;;8.67;1.37;;;26.00;36.00;;;;;;5030339;28;20135;-63
2021/05/21 09:17:35;;;;;;;0.50;0.45;;;26.10;35.70;;;;;;5024125;28;20073;-62
2021/05/21 09:20:04;;;;;;;4.47;0.55;;;26.10;35.30;;;;;;5033018;28;20148;-62
2021/05/21 09:23:11;;;;;;;2.88;0.40;;;26.20;35.20;;;;;;5034543;28;20060;-62
2021/05/21 09:25:42;;;;;;;2.58;0.50;;;26.20;35.30;;;;;;5029932;28;20111;-61
2021/05/21 09:28:37;;;;;;;0.38;0.32;;;26.20;34.90;;;;;;5031037;28;20080;-62
2021/05/21 09:31:18;;;;;;;2.40;0.43;;;26.20;35.00;;;;;;5029314;28;20041;-62
2021/05/21 09:33:49;;;;;;;1.38;0.30;;;26.20;34.90;;;;;;5032531;28;20469;-63
2021/05/21 09:36:31;;;;;;;1.33;0.60;;;26.20;34.50;;;;;;5030845;28;20499;-62
2021/05/21 09:39:01;;;;;;;2.92;0.40;;;26.20;34.50;;;;;;5031452;28;20080;-62
2021/05/21 09:41:53;;;;;;;0.95;0.30;;;26.20;34.70;;;;;;5029837;28;20049;-62
2021/05/21 09:44:22;;;;;;;1.30;0.38;;;26.20;34.70;;;;;;5034853;28;20419;-67
2021/05/21 09:46:51;;;;;;;5.78;0.63;;;26.20;34.60;;;;;;5032265;28;20463;-63
2021/05/21 09:49:33;;;;;;;0.43;0.40;;;26.20;34.20;;;;;;5034551;28;20067;-63
2021/05/21 09:52:04;;;;;;;2.40;0.60;;;26.20;34.10;;;;;;5034774;28;20045;-63
2021/05/21 09:54:54;;;;;;;0.57;0.25;;;26.20;34.40;;;;;;5035624;28;20036;-62
2021/05/21 09:57:29;;;;;;;;;;;26.20;34.60;;;;;;5031534;28;20051;-63
2021/05/21 09:59:57;;;;;;;2.17;0.35;;;26.20;34.60;;;;;;5032627;28;19983;-63
2021/05/21 10:02:29;;;;;;;0.65;0.50;;;26.20;34.70;;;;;;5028440;28;20038;-63
2021/05/21 10:04:59;;;;;;;2.03;0.38;;;26.20;34.80;;;;;;5034231;28;20037;-62
2021/05/21 10:07:27;;;;;;;1.00;0.45;;;26.10;34.70;;;;;;5027834;28;20151;-64
2021/05/21 10:09:54;;;;;;;1.88;0.20;;;26.10;34.70;;;;;;5032582;28;20041;-62
2021/05/21 10:12:23;;;;;;;10.95;0.85;;;26.10;34.70;;;;;;5030824;28;20091;-63
2021/05/21 10:14:51;;;;;;;1.10;0.40;;;26.10;34.80;;;;;;5031165;28;20041;-64
2021/05/21 10:17:22;;;;;;;0.20;0.20;;;26.10;34.90;;;;;;5030699;28;20049;-63
2021/05/21 10:19:54;;;;;;;0.60;0.40;;;26.00;34.80;;;;;;5049408;28;20110;-64
2021/05/21 10:22:34;;;;;;;1.13;0.50;;;26.00;34.90;;;;;;5029203;28;20110;-62
2021/05/21 10:25:12;;;;;;;;;;;26.00;35.30;;;;;;5031250;28;20061;-63
2021/05/21 10:27:44;;;;;;;0.40;0.30;;;26.00;35.50;;;;;;5031728;28;19924;-61
2021/05/21 10:30:12;;;;;;;4.20;0.68;;;26.10;35.30;;;;;;5032242;28;20083;-62
2021/05/21 10:32:39;;;;;;;2.03;0.40;;;26.10;35.40;;;;;;5034030;28;20345;-64
2021/05/21 10:35:15;;;;;;;2.20;0.75;;;26.10;35.30;;;;;;5032209;28;20084;-61
2021/05/21 10:37:44;;;;;;;1.83;0.80;;;26.10;35.20;;;;;;5031768;28;20438;-61
2021/05/21 10:40:24;;;;;;;3.17;0.30;;;26.10;35.10;;;;;;5034732;28;20056;-60
2021/05/21 10:42:52;;;;;;;0.88;0.30;;;26.10;35.20;;;;;;5035116;28;20421;-62
2021/05/21 10:45:24;;;;;;;0.75;0.40;;;26.10;35.00;;;;;;5033242;28;20083;-61
2021/05/21 10:48:07;;;;;;;0.20;0.20;;;26.10;35.10;;;;;;5035598;28;20502;-62
2021/05/21 10:50:39;;;;;;;2.03;0.68;;;26.10;35.10;;;;;;5030682;28;20049;-64
2021/05/21 10:53:09;;;;;;;2.15;0.38;;;26.20;35.30;;;;;;5033664;28;20057;-63
2021/05/21 10:55:51;;;;;;;0.40;0.32;;;26.10;35.00;;;;;;5029527;28;20067;-64
2021/05/21 10:58:21;;;;;;;0.35;0.35;;;26.20;35.00;;;;;;5043061;28;20132;-59
2021/05/21 11:01:17;;;;;;;1.27;0.30;;;26.10;35.40;;;;;;5044276;28;20081;-62
2021/05/21 11:04:03;;;;;;;4.53;0.32;;;26.10;35.20;;;;;;5037496;28;20041;-61
2021/05/21 11:06:33;;;;;;;2.47;0.90;;;26.10;35.50;;;;;;5023469;28;20041;-61
2021/05/21 11:09:05;;;;;;;5.82;0.52;;;26.10;35.40;;;;;;5033030;28;20528;-63
2021/05/21 11:12:04;;;;;;;4.05;0.50;;;26.20;35.40;;;;;;5039967;28;20114;-60
2021/05/21 11:14:39;;;;;;;5.45;0.45;;;26.20;35.00;;;;;;5033636;28;20045;-62
2021/05/21 11:17:25;;;;;;;3.25;0.40;;;26.20;35.20;;;;;;5041938;28;20107;-60
2021/05/21 11:19:58;;;;;;;0.63;0.40;;;26.20;35.00;;;;;;5031147;28;20048;-60
2021/05/21 11:22:36;;;;;;;2.85;0.93;;;26.20;34.90;;;;;;5038937;28;20073;-59
2021/05/21 11:25:14;;;;;;;1.10;0.40;;;26.30;35.00;;;;;;5037549;28;20080;-62
2021/05/21 11:27:42;;;;;;;1.05;0.28;;;26.30;35.00;;;;;;5039016;28;20057;-60
2021/05/21 11:30:13;;;;;;;0.93;0.30;;;26.30;35.00;;;;;;5033573;28;20434;-61
2021/05/21 11:32:41;;;;;;;0.40;0.40;;;26.30;35.00;;;;;;5030145;28;20053;-60
2021/05/21 11:35:10;;;;;;;1.08;0.40;;;26.20;35.00;;;;;;5040529;28;20478;-60
2021/05/21 11:37:39;;;;;;;2.05;0.40;;;26.20;34.90;;;;;;5034546;28;20140;-58
2021/05/21 11:40:09;;;;;;;0.47;0.30;;;26.20;34.60;;;;;;5032250;28;20073;-59
2021/05/21 11:42:36;;;;;;;0.50;0.35;;;26.10;34.20;;;;;;5033453;28;20474;-60
2021/05/21 11:45:08;;;;;;;3.20;0.50;;;26.10;34.40;;;;;;5037660;28;20041;-59
2021/05/21 11:47:37;;;;;;;5.78;0.40;;;26.10;34.30;;;;;;5036088;28;20529;-59
2021/05/21 11:50:07;;;;;;;2.45;0.40;;;26.00;34.20;;;;;;5032417;28;20076;-60
2021/05/21 11:52:34;;;;;;;0.47;0.38;;;26.00;34.20;;;;;;5033755;28;20127;-59
2021/05/21 11:55:02;;;;;;;2.85;0.50;;;26.00;34.20;;;;;;5033054;28;20278;-60
2021/05/21 11:57:30;;;;;;;6.32;0.40;;;26.00;34.20;;;;;;5033101;28;20072;-59
2021/05/21 11:59:58;;;;;;;1.80;0.65;;;26.00;34.40;;;;;;5033784;28;20124;-60
2021/05/21 12:02:26;;;;;;;2.03;0.40;;;26.00;34.50;;;;;;5037937;28;20053;-61
2021/05/21 12:04:54;;;;;;;0.20;0.20;;;26.00;34.70;;;;;;5045943;28;20079;-61
2021/05/21 12:07:24;;;;;;;0.98;0.40;;;26.10;34.90;;;;;;5039569;28;20054;-60
2021/05/21 12:09:59;;;;;;;2.45;0.57;;;26.10;34.90;;;;;;5032548;28;20120;-60
2021/05/21 12:12:28;;;;;;;1.27;0.25;;;26.20;34.80;;;;;;5031695;28;20044;-61
2021/05/21 12:15:06;;;;;;;1.75;0.40;;;26.30;34.80;;;;;;5028705;28;20579;-62
2021/05/21 12:17:35;;;;;;;1.10;0.30;;;26.40;34.70;;;;;;5042368;28;20045;-62
2021/05/21 12:20:05;;;;;;;0.40;0.40;;;26.40;34.70;;;;;;5039752;28;20396;-62
2021/05/21 12:22:32;;;;;;;0.77;0.35;;;26.40;34.70;;;;;;5045221;28;20501;-61
2021/05/21 12:25:01;;;;;;;1.35;0.40;;;26.50;34.70;;;;;;5038473;28;20099;-61
2021/05/21 12:27:29;;;;;;;0.85;0.40;;;26.50;34.60;;;;;;5044514;28;20134;-61
2021/05/21 12:29:56;;;;;;;3.55;0.40;;;26.50;34.60;;;;;;5039168;28;20217;-61
2021/05/21 12:32:23;;;;;;;0.35;0.35;;;26.50;34.60;;;;;;5031179;28;21395;-61
2021/05/21 12:34:52;;;;;;;0.43;0.38;;;26.50;35.20;;;;;;5041814;28;20068;-61
2021/05/21 12:37:24;;;;;;;0.13;0.13;;;26.60;34.70;;;;;;5039796;28;20437;-61
2021/05/21 12:39:52;;;;;;;0.40;0.30;;;26.60;34.70;;;;;;5035956;28;20059;-61
2021/05/21 12:42:21;;;;;;;0.55;0.30;;;26.60;34.80;;;;;;5039179;28;20037;-61
2021/05/21 12:44:53;;;;;;;0.25;0.22;;;26.60;34.70;;;;;;5038497;28;20087;-61
2021/05/21 12:47:23;;;;;;;0.55;0.50;;;26.60;34.70;;;;;;5045715;28;20044;-61
2021/05/21 12:49:51;;;;;;;0.82;0.30;;;26.60;34.80;;;;;;5045818;28;20127;-61
2021/05/21 12:52:18;;;;;;;1.55;0.40;;;26.60;34.70;;;;;;5045000;28;20048;-61
2021/05/21 12:54:47;;;;;;;2.08;0.38;;;26.70;34.70;;;;;;5044504;28;20471;-61
2021/05/21 12:57:19;;;;;;;2.00;0.40;;;26.70;34.80;;;;;;5045764;28;20131;-61
2021/05/21 12:59:56;;;;;;;1.27;0.43;;;26.70;35.10;;;;;;5046129;28;20402;-60
2021/05/21 13:02:28;;;;;;;0.32;0.32;;;26.70;34.60;;;;;;5044995;28;20486;-60